createdAt,value
2017-12-03T00:00:44.579Z,96.92
2017-12-03T00:01:44.508Z,96.92
2017-12-03T00:02:44.450Z,97.58
2017-12-03T00:03:44.395Z,97.30
2017-12-03T00:04:44.310Z,97.25
2017-12-03T00:05:44.240Z,97.44
2017-12-03T00:06:44.176Z,97.16
2017-12-03T00:07:44.115Z,97.25
2017-12-03T00:08:44.056Z,96.69
2017-12-03T00:09:43.983Z,96.59
2017-12-03T00:10:43.918Z,97.16
2017-12-03T00:11:43.845Z,97.25
2017-12-03T00:12:43.785Z,96.97
2017-12-03T00:13:43.718Z,97.25
2017-12-03T00:14:43.663Z,96.97
2017-12-03T00:15:43.585Z,97.16
2017-12-03T00:16:43.527Z,97.63
2017-12-03T00:17:43.446Z,97.82
2017-12-03T00:18:43.386Z,97.44
2017-12-03T00:19:43.325Z,97.34
2017-12-03T00:20:43.270Z,97.53
2017-12-03T00:21:43.188Z,97.82
2017-12-03T00:22:43.115Z,97.91
2017-12-03T00:23:43.051Z,97.82
2017-12-03T00:24:42.989Z,98.01
2017-12-03T00:25:42.932Z,98.20
2017-12-03T00:26:42.855Z,98.01
2017-12-03T00:27:42.795Z,98.20
2017-12-03T00:28:42.718Z,97.91
2017-12-03T00:29:42.658Z,98.01
2017-12-03T00:30:42.597Z,98.39
2017-12-03T00:31:42.538Z,98.20
2017-12-03T00:32:42.461Z,98.20
2017-12-03T00:33:42.392Z,98.29
2017-12-03T00:34:42.322Z,98.67
2017-12-03T00:35:42.259Z,98.48
2017-12-03T00:36:42.202Z,98.20
2017-12-03T00:37:42.145Z,98.96
2017-12-03T00:38:42.062Z,98.67
2017-12-03T00:39:41.987Z,98.96
2017-12-03T00:40:41.929Z,99.05
2017-12-03T00:41:41.862Z,98.39
2017-12-03T00:42:41.807Z,98.77
2017-12-03T00:43:41.729Z,98.20
2017-12-03T00:44:41.663Z,98.77
2017-12-03T00:45:41.594Z,98.86
2017-12-03T00:46:41.531Z,98.67
2017-12-03T00:47:41.469Z,98.48
2017-12-03T00:48:41.413Z,98.58
2017-12-03T00:49:41.331Z,98.77
2017-12-03T00:50:41.259Z,98.58
2017-12-03T00:51:41.195Z,99.33
2017-12-03T00:52:41.134Z,99.71
2017-12-03T00:53:41.075Z,99.52
2017-12-03T00:54:40.997Z,99.71
2017-12-03T00:55:40.927Z,99.33
2017-12-03T00:56:40.862Z,99.52
2017-12-03T00:57:40.800Z,99.52
2017-12-03T00:58:40.738Z,99.52
2017-12-03T00:59:40.681Z,99.99
2017-12-03T01:00:40.603Z,99.71
2017-12-03T01:01:40.537Z,99.80
2017-12-03T01:02:40.464Z,99.99
2017-12-03T01:03:40.402Z,99.99
2017-12-03T01:04:40.343Z,99.99
2017-12-03T01:05:40.268Z,99.99
2017-12-03T01:06:40.203Z,99.99
2017-12-03T01:07:40.135Z,99.99
2017-12-03T01:08:40.067Z,99.99
2017-12-03T01:09:40.010Z,99.99
2017-12-03T01:10:39.949Z,99.99
2017-12-03T01:11:39.870Z,99.99
2017-12-03T01:12:39.804Z,99.99
2017-12-03T01:13:39.733Z,99.99
2017-12-03T01:14:39.671Z,99.99
2017-12-03T01:15:39.611Z,99.99
2017-12-03T01:16:39.544Z,99.99
2017-12-03T01:17:39.471Z,99.99
2017-12-03T01:18:39.398Z,99.99
2017-12-03T01:19:39.338Z,99.99
2017-12-03T01:20:39.275Z,99.99
2017-12-03T01:21:39.217Z,99.71
2017-12-03T01:22:39.139Z,99.99
2017-12-03T01:23:39.086Z,99.99
2017-12-03T01:24:39.001Z,99.99
2017-12-03T01:25:38.939Z,99.99
2017-12-03T01:26:38.886Z,99.99
2017-12-03T01:27:38.825Z,99.99
2017-12-03T01:28:38.739Z,99.99
2017-12-03T01:29:38.668Z,99.99
2017-12-03T01:30:38.607Z,99.52
2017-12-03T01:31:38.543Z,99.99
2017-12-03T01:32:38.495Z,99.71
2017-12-03T01:33:38.408Z,99.99
2017-12-03T01:34:38.340Z,99.99
2017-12-03T01:35:38.271Z,99.71
2017-12-03T01:36:38.208Z,99.90
2017-12-03T01:37:38.151Z,99.62
2017-12-03T01:38:38.093Z,99.62
2017-12-03T01:39:38.009Z,99.90
2017-12-03T01:40:37.937Z,99.52
2017-12-03T01:41:37.874Z,99.43
2017-12-03T01:42:37.811Z,99.52
2017-12-03T01:43:37.754Z,98.96
2017-12-03T01:44:37.680Z,99.71
2017-12-03T01:45:37.609Z,99.62
2017-12-03T01:46:37.540Z,99.71
2017-12-03T01:47:37.477Z,99.52
2017-12-03T01:48:37.417Z,99.33
2017-12-03T01:49:37.361Z,99.71
2017-12-03T01:50:37.277Z,99.52
2017-12-03T01:51:37.206Z,99.52
2017-12-03T01:52:37.142Z,99.43
2017-12-03T01:53:37.081Z,99.99
2017-12-03T01:54:37.023Z,99.99
2017-12-03T01:55:36.944Z,99.99
2017-12-03T01:56:36.878Z,99.99
2017-12-03T01:57:36.806Z,99.99
2017-12-03T01:58:36.747Z,99.99
2017-12-03T01:59:36.685Z,99.99
2017-12-03T02:00:36.629Z,99.99
2017-12-03T02:01:36.544Z,99.99
2017-12-03T02:02:36.475Z,99.99
2017-12-03T02:03:36.414Z,99.99
2017-12-03T02:04:36.346Z,99.99
2017-12-03T02:05:36.291Z,99.99
2017-12-03T02:06:36.211Z,99.99
2017-12-03T02:07:36.146Z,99.99
2017-12-03T02:08:36.074Z,99.99
2017-12-03T02:09:36.013Z,99.99
2017-12-03T02:10:35.952Z,99.99
2017-12-03T02:11:35.880Z,99.99
2017-12-03T02:12:35.815Z,99.99
2017-12-03T02:13:35.748Z,99.99
2017-12-03T02:14:35.679Z,99.99
2017-12-03T02:15:35.615Z,99.99
2017-12-03T02:16:35.559Z,99.71
2017-12-03T02:17:35.480Z,99.99
2017-12-03T02:18:35.414Z,99.99
2017-12-03T02:19:35.342Z,99.99
2017-12-03T02:20:35.280Z,99.99
2017-12-03T02:21:35.221Z,99.99
2017-12-03T02:22:35.165Z,99.99
2017-12-03T02:23:35.081Z,99.99
2017-12-03T02:24:35.011Z,99.99
2017-12-03T02:25:34.942Z,99.71
2017-12-03T02:26:34.884Z,99.90
2017-12-03T02:27:34.832Z,99.99
2017-12-03T02:28:34.748Z,99.99
2017-12-03T02:29:34.701Z,99.99
2017-12-03T02:30:34.612Z,99.99
2017-12-03T02:31:34.550Z,99.99
2017-12-03T02:32:34.490Z,99.99
2017-12-03T02:33:34.418Z,99.99
2017-12-03T02:34:34.350Z,99.99
2017-12-03T02:35:34.278Z,99.99
2017-12-03T02:36:34.214Z,99.99
2017-12-03T02:37:34.153Z,99.99
2017-12-03T02:38:34.081Z,99.99
2017-12-03T02:39:34.018Z,99.99
2017-12-03T02:40:33.953Z,99.99
2017-12-03T02:41:33.880Z,99.99
2017-12-03T02:42:33.818Z,99.99
2017-12-03T02:43:33.758Z,99.99
2017-12-03T02:44:33.703Z,99.99
2017-12-03T02:45:33.617Z,99.99
2017-12-03T02:46:33.549Z,99.99
2017-12-03T02:47:33.484Z,99.99
2017-12-03T02:48:33.420Z,99.99
2017-12-03T02:49:33.363Z,99.99
2017-12-03T02:50:33.286Z,99.99
2017-12-03T02:51:33.219Z,99.99
2017-12-03T02:52:33.148Z,99.99
2017-12-03T02:53:33.085Z,99.99
2017-12-03T02:54:33.025Z,99.99
2017-12-03T02:55:32.970Z,99.99
2017-12-03T02:56:32.891Z,99.99
2017-12-03T02:57:32.812Z,99.99
2017-12-03T02:58:32.752Z,99.99
2017-12-03T02:59:32.688Z,99.99
2017-12-03T03:00:32.618Z,99.99
2017-12-03T03:01:32.553Z,99.99
2017-12-03T03:02:32.479Z,99.99
2017-12-03T03:03:32.415Z,99.99
2017-12-03T03:04:32.355Z,99.99
2017-12-03T03:05:32.287Z,99.99
2017-12-03T03:06:32.239Z,99.99
2017-12-03T03:07:32.156Z,99.99
2017-12-03T03:08:32.084Z,99.99
2017-12-03T03:09:32.018Z,99.99
2017-12-03T03:10:31.953Z,99.99
2017-12-03T03:11:31.899Z,99.99
2017-12-03T03:12:31.821Z,99.99
2017-12-03T03:13:31.752Z,99.99
2017-12-03T03:14:31.681Z,99.99
2017-12-03T03:15:31.620Z,99.99
2017-12-03T03:16:31.561Z,99.99
2017-12-03T03:17:31.506Z,99.99
2017-12-03T03:18:31.420Z,99.99
2017-12-03T03:19:31.349Z,99.99
2017-12-03T03:20:31.286Z,99.99
2017-12-03T03:21:31.223Z,99.99
2017-12-03T03:22:31.170Z,99.99
2017-12-03T03:23:31.087Z,99.99
2017-12-03T03:24:31.022Z,99.99
2017-12-03T03:25:30.949Z,99.99
2017-12-03T03:26:30.888Z,99.99
2017-12-03T03:27:30.829Z,99.99
2017-12-03T03:28:30.776Z,99.99
2017-12-03T03:29:30.693Z,99.99
2017-12-03T03:30:30.616Z,99.99
2017-12-03T03:31:30.554Z,99.99
2017-12-03T03:32:30.487Z,99.99
2017-12-03T03:33:30.436Z,99.99
2017-12-03T03:34:30.352Z,99.99
2017-12-03T03:35:30.290Z,99.99
2017-12-03T03:36:30.218Z,99.99
2017-12-03T03:37:30.154Z,99.99
2017-12-03T03:38:30.097Z,99.99
2017-12-03T03:39:30.020Z,99.99
2017-12-03T03:40:29.957Z,99.99
2017-12-03T03:41:29.885Z,99.99
2017-12-03T03:42:29.819Z,99.99
2017-12-03T03:43:29.758Z,99.99
2017-12-03T03:44:29.704Z,99.99
2017-12-03T03:45:29.620Z,99.99
2017-12-03T03:46:29.547Z,99.99
2017-12-03T03:47:29.482Z,99.99
2017-12-03T03:48:29.422Z,99.99
2017-12-03T03:49:29.365Z,99.99
2017-12-03T03:50:29.290Z,99.99
2017-12-03T03:51:29.221Z,99.99
2017-12-03T03:52:29.147Z,99.99
2017-12-03T03:53:29.087Z,99.99
2017-12-03T03:54:29.026Z,99.99
2017-12-03T03:55:28.972Z,99.99
2017-12-03T03:56:28.886Z,99.99
2017-12-03T03:57:28.812Z,99.99
2017-12-03T03:58:28.749Z,99.99
2017-12-03T03:59:28.685Z,99.99
2017-12-03T04:00:28.636Z,99.99
2017-12-03T04:01:28.551Z,99.99
2017-12-03T04:02:28.480Z,99.99
2017-12-03T04:03:28.414Z,99.99
2017-12-03T04:04:28.351Z,99.99
2017-12-03T04:05:28.295Z,99.99
2017-12-03T04:06:28.219Z,99.99
2017-12-03T04:07:28.152Z,99.99
2017-12-03T04:08:28.079Z,99.99
2017-12-03T04:09:28.018Z,99.99
2017-12-03T04:10:27.956Z,99.99
2017-12-03T04:11:27.902Z,99.99
2017-12-03T04:12:27.816Z,99.99
2017-12-03T04:13:27.754Z,99.99
2017-12-03T04:14:27.682Z,99.99
2017-12-03T04:15:27.618Z,99.99
2017-12-03T04:16:27.564Z,99.99
2017-12-03T04:17:27.484Z,99.99
2017-12-03T04:18:27.416Z,99.99
2017-12-03T04:19:27.347Z,99.99
2017-12-03T04:20:27.283Z,99.99
2017-12-03T04:21:27.224Z,99.99
2017-12-03T04:22:27.150Z,99.99
2017-12-03T04:23:27.084Z,99.99
2017-12-03T04:24:27.010Z,99.99
2017-12-03T04:25:26.947Z,99.99
2017-12-03T04:26:26.883Z,99.99
2017-12-03T04:27:26.831Z,99.99
2017-12-03T04:28:26.748Z,99.99
2017-12-03T04:29:26.679Z,99.99
2017-12-03T04:30:26.613Z,99.99
2017-12-03T04:31:26.548Z,99.99
2017-12-03T04:32:26.492Z,99.99
2017-12-03T04:33:26.413Z,99.99
2017-12-03T04:34:26.346Z,99.99
2017-12-03T04:35:26.276Z,99.99
2017-12-03T04:36:26.214Z,99.99
2017-12-03T04:37:26.158Z,99.99
2017-12-03T04:38:26.099Z,99.99
2017-12-03T04:39:26.018Z,99.99
2017-12-03T04:40:25.942Z,99.99
2017-12-03T04:41:25.878Z,99.99
2017-12-03T04:42:25.816Z,99.99
2017-12-03T04:43:25.761Z,99.99
2017-12-03T04:44:25.682Z,99.99
2017-12-03T04:45:25.614Z,99.99
2017-12-03T04:46:25.545Z,99.99
2017-12-03T04:47:25.480Z,99.99
2017-12-03T04:48:25.421Z,99.99
2017-12-03T04:49:25.344Z,99.99
2017-12-03T04:50:25.277Z,99.99
2017-12-03T04:51:25.205Z,99.99
2017-12-03T04:52:25.147Z,99.99
2017-12-03T04:53:25.084Z,99.99
2017-12-03T04:54:25.028Z,99.99
2017-12-03T04:55:24.942Z,99.99
2017-12-03T04:56:24.872Z,99.99
2017-12-03T04:57:24.807Z,99.99
2017-12-03T04:58:24.746Z,99.99
2017-12-03T04:59:24.690Z,99.99
2017-12-03T05:00:24.612Z,99.99
2017-12-03T05:01:24.534Z,99.99
2017-12-03T05:02:24.471Z,99.99
2017-12-03T05:03:24.409Z,99.99
2017-12-03T05:04:24.350Z,99.99
2017-12-03T05:05:24.275Z,99.99
2017-12-03T05:06:24.209Z,99.99
2017-12-03T05:07:24.138Z,99.99
2017-12-03T05:08:24.074Z,99.99
2017-12-03T05:09:24.013Z,99.99
2017-12-03T05:10:23.958Z,99.99
2017-12-03T05:11:23.874Z,99.99
2017-12-03T05:12:23.799Z,99.99
2017-12-03T05:13:23.736Z,99.99
2017-12-03T05:14:23.676Z,99.99
2017-12-03T05:15:23.620Z,99.99
2017-12-03T05:16:23.541Z,99.99
2017-12-03T05:17:23.472Z,99.99
2017-12-03T05:18:23.407Z,99.99
2017-12-03T05:19:23.342Z,99.99
2017-12-03T05:20:23.283Z,99.99
2017-12-03T05:21:23.206Z,99.99
2017-12-03T05:22:23.139Z,99.99
2017-12-03T05:23:23.072Z,99.99
2017-12-03T05:24:23.008Z,99.99
2017-12-03T05:25:22.943Z,99.99
2017-12-03T05:26:22.880Z,99.99
2017-12-03T05:27:22.806Z,99.99
2017-12-03T05:28:22.740Z,99.99
2017-12-03T05:29:22.669Z,99.99
2017-12-03T05:30:22.607Z,99.99
2017-12-03T05:31:22.556Z,99.99
2017-12-03T05:32:22.472Z,99.99
2017-12-03T05:33:22.405Z,99.99
2017-12-03T05:34:22.333Z,99.99
2017-12-03T05:35:22.272Z,99.99
2017-12-03T05:36:22.211Z,99.99
2017-12-03T05:37:22.156Z,99.99
2017-12-03T05:38:22.076Z,99.99
2017-12-03T05:39:22.001Z,99.99
2017-12-03T05:40:21.938Z,99.99
2017-12-03T05:41:21.876Z,99.99
2017-12-03T05:42:21.818Z,99.99
2017-12-03T05:43:21.742Z,99.99
2017-12-03T05:44:21.675Z,99.99
2017-12-03T05:45:21.605Z,99.99
2017-12-03T05:46:21.540Z,99.99
2017-12-03T05:47:21.480Z,99.99
2017-12-03T05:48:21.424Z,99.99
2017-12-03T05:49:21.346Z,99.99
2017-12-03T05:50:21.276Z,99.99
2017-12-03T05:51:21.208Z,99.99
2017-12-03T05:52:21.145Z,99.99
2017-12-03T05:53:21.084Z,99.99
2017-12-03T05:54:21.015Z,99.99
2017-12-03T05:55:20.944Z,99.99
2017-12-03T05:56:20.876Z,99.99
2017-12-03T05:57:20.811Z,99.99
2017-12-03T05:58:20.749Z,99.99
2017-12-03T05:59:20.692Z,99.99
2017-12-03T06:00:20.612Z,99.99
2017-12-03T06:01:20.548Z,99.99
2017-12-03T06:02:20.473Z,99.99
2017-12-03T06:03:20.413Z,99.99
2017-12-03T06:04:20.353Z,99.99
2017-12-03T06:05:20.278Z,99.99
2017-12-03T06:06:20.212Z,99.99
2017-12-03T06:07:20.140Z,99.99
2017-12-03T06:08:20.082Z,99.99
2017-12-03T06:09:20.012Z,99.99
2017-12-03T06:10:19.960Z,99.99
2017-12-03T06:11:19.880Z,99.99
2017-12-03T06:12:19.813Z,99.99
2017-12-03T06:13:19.742Z,99.99
2017-12-03T06:14:19.679Z,99.99
2017-12-03T06:15:19.622Z,99.99
2017-12-03T06:16:19.567Z,99.99
2017-12-03T06:17:19.480Z,99.99
2017-12-03T06:18:19.410Z,99.99
2017-12-03T06:19:19.348Z,99.99
2017-12-03T06:20:19.283Z,99.99
2017-12-03T06:21:19.229Z,99.99
2017-12-03T06:22:19.149Z,99.99
2017-12-03T06:23:19.088Z,99.99
2017-12-03T06:24:19.011Z,99.99
2017-12-03T06:25:18.950Z,99.99
2017-12-03T06:26:18.889Z,99.99
2017-12-03T06:27:18.822Z,99.99
2017-12-03T06:28:18.785Z,99.99
2017-12-03T06:29:18.675Z,99.99
2017-12-03T06:30:18.613Z,99.99
2017-12-03T06:31:18.553Z,99.99
2017-12-03T06:32:18.496Z,99.99
2017-12-03T06:33:18.414Z,99.99
2017-12-03T06:34:18.406Z,99.99
2017-12-03T06:35:18.285Z,99.99
2017-12-03T06:36:18.219Z,99.99
2017-12-03T06:37:18.160Z,99.99
2017-12-03T06:38:18.101Z,99.99
2017-12-03T06:39:18.019Z,99.99
2017-12-03T06:40:17.945Z,99.99
2017-12-03T06:41:17.882Z,99.99
2017-12-03T06:42:17.820Z,99.99
2017-12-03T06:43:17.752Z,99.80
2017-12-03T06:44:17.687Z,99.62
2017-12-03T06:45:17.617Z,99.62
2017-12-03T06:46:17.555Z,99.71
2017-12-03T06:47:17.485Z,99.99
2017-12-03T06:48:17.426Z,99.99
2017-12-03T06:49:17.371Z,99.52
2017-12-03T06:50:17.287Z,99.80
2017-12-03T06:51:17.212Z,99.52
2017-12-03T06:52:17.155Z,99.62
2017-12-03T06:53:17.089Z,99.99
2017-12-03T06:54:17.032Z,99.99
2017-12-03T06:55:16.954Z,99.99
2017-12-03T06:56:16.906Z,99.99
2017-12-03T06:57:16.817Z,99.99
2017-12-03T06:58:16.754Z,99.99
2017-12-03T06:59:16.694Z,99.99
2017-12-03T07:00:16.639Z,99.99
2017-12-03T07:01:16.555Z,99.99
2017-12-03T07:02:16.480Z,99.99
2017-12-03T07:03:16.421Z,99.99
2017-12-03T07:04:16.357Z,99.99
2017-12-03T07:05:16.300Z,99.99
2017-12-03T07:06:16.222Z,99.99
2017-12-03T07:07:16.156Z,99.99
2017-12-03T07:08:16.096Z,99.99
2017-12-03T07:09:16.023Z,99.99
2017-12-03T07:10:15.964Z,99.99
2017-12-03T07:11:15.907Z,99.99
2017-12-03T07:12:15.830Z,99.99
2017-12-03T07:13:15.752Z,99.99
2017-12-03T07:14:15.688Z,99.99
2017-12-03T07:15:15.624Z,99.99
2017-12-03T07:16:15.570Z,99.99
2017-12-03T07:17:15.491Z,99.62
2017-12-03T07:18:15.417Z,99.80
2017-12-03T07:19:15.352Z,99.80
2017-12-03T07:20:15.290Z,99.80
2017-12-03T07:21:15.230Z,99.52
2017-12-03T07:22:15.175Z,99.80
2017-12-03T07:23:15.091Z,99.52
2017-12-03T07:24:15.017Z,99.80
2017-12-03T07:25:14.955Z,99.33
2017-12-03T07:26:14.895Z,99.33
2017-12-03T07:27:14.836Z,99.52
2017-12-03T07:28:14.758Z,99.43
2017-12-03T07:29:14.690Z,99.71
2017-12-03T07:30:14.625Z,98.67
2017-12-03T07:31:14.558Z,98.67
2017-12-03T07:32:14.497Z,98.58
2017-12-03T07:33:14.425Z,98.48
2017-12-03T07:34:14.360Z,98.48
2017-12-03T07:35:14.291Z,98.29
2017-12-03T07:36:14.227Z,98.58
2017-12-03T07:37:14.160Z,98.86
2017-12-03T07:38:14.104Z,98.39
2017-12-03T07:39:14.027Z,98.39
2017-12-03T07:40:13.960Z,98.77
2017-12-03T07:41:13.889Z,98.48
2017-12-03T07:42:13.829Z,98.77
2017-12-03T07:43:13.766Z,98.58
2017-12-03T07:44:13.711Z,98.20
2017-12-03T07:45:13.628Z,97.91
2017-12-03T07:46:13.554Z,97.91
2017-12-03T07:47:13.492Z,97.63
2017-12-03T07:48:13.430Z,97.34
2017-12-03T07:49:13.373Z,97.34
2017-12-03T07:50:13.297Z,97.53
2017-12-03T07:51:13.230Z,97.34
2017-12-03T07:52:13.161Z,97.16
2017-12-03T07:53:13.096Z,96.97
2017-12-03T07:54:13.035Z,97.06
2017-12-03T07:55:12.979Z,97.06
2017-12-03T07:56:12.896Z,97.49
2017-12-03T07:57:12.824Z,96.92
2017-12-03T07:58:12.761Z,96.54
2017-12-03T07:59:12.701Z,96.45
2017-12-03T08:00:12.643Z,96.54
2017-12-03T08:01:12.585Z,95.69
2017-12-03T08:02:12.506Z,95.12
2017-12-03T08:03:12.452Z,94.98
2017-12-03T08:04:12.368Z,94.04
2017-12-03T08:05:12.304Z,93.42
2017-12-03T08:06:12.247Z,93.84
2017-12-03T08:07:12.168Z,92.43
2017-12-03T08:08:12.105Z,91.29
2017-12-03T08:09:12.032Z,91.00
2017-12-03T08:10:11.972Z,90.63
2017-12-03T08:11:11.910Z,89.82
2017-12-03T08:12:11.854Z,89.44
2017-12-03T08:13:11.778Z,89.15
2017-12-03T08:14:11.711Z,88.87
2017-12-03T08:15:11.639Z,87.92
2017-12-03T08:16:11.580Z,87.02
2017-12-03T08:17:11.517Z,86.74
2017-12-03T08:18:11.452Z,86.98
2017-12-03T08:19:11.404Z,87.35
2017-12-03T08:20:11.321Z,88.02
2017-12-03T08:21:11.254Z,87.21
2017-12-03T08:22:11.187Z,85.78
2017-12-03T08:23:11.124Z,85.88
2017-12-03T08:24:11.066Z,85.65
2017-12-03T08:25:11.012Z,86.64
2017-12-03T08:26:10.933Z,85.78
2017-12-03T08:27:10.871Z,85.41
2017-12-03T08:28:10.801Z,84.36
2017-12-03T08:29:10.735Z,83.27
2017-12-03T08:30:10.675Z,82.79
2017-12-03T08:31:10.618Z,82.13
2017-12-03T08:32:10.573Z,81.62
2017-12-03T08:33:10.487Z,82.66
2017-12-03T08:34:10.408Z,83.55
2017-12-03T08:35:10.347Z,82.60
2017-12-03T08:36:10.288Z,81.75
2017-12-03T08:37:10.226Z,81.09
2017-12-03T08:38:10.172Z,80.56
2017-12-03T08:39:10.094Z,79.33
2017-12-03T08:40:10.029Z,78.38
2017-12-03T08:41:09.961Z,78.13
2017-12-03T08:42:09.897Z,77.14
2017-12-03T08:43:09.839Z,76.67
2017-12-03T08:44:09.778Z,78.00
2017-12-03T08:45:09.721Z,77.56
2017-12-03T08:46:09.644Z,76.80
2017-12-03T08:47:09.582Z,75.76
2017-12-03T08:48:09.519Z,74.90
2017-12-03T08:49:09.455Z,74.62
2017-12-03T08:50:09.389Z,75.13
2017-12-03T08:51:09.335Z,74.33
2017-12-03T08:52:09.274Z,74.15
2017-12-03T08:53:09.219Z,73.80
2017-12-03T08:54:09.137Z,73.52
2017-12-03T08:55:09.076Z,72.75
2017-12-03T08:56:09.008Z,73.71
2017-12-03T08:57:08.945Z,73.42
2017-12-03T08:58:08.883Z,72.66
2017-12-03T08:59:08.828Z,72.19
2017-12-03T09:00:08.760Z,71.71
2017-12-03T09:01:08.715Z,71.56
2017-12-03T09:02:08.633Z,71.08
2017-12-03T09:03:08.571Z,70.13
2017-12-03T09:04:08.509Z,69.66
2017-12-03T09:05:08.446Z,69.46
2017-12-03T09:06:08.385Z,69.09
2017-12-03T09:07:08.322Z,69.66
2017-12-03T09:08:08.268Z,69.85
2017-12-03T09:09:08.214Z,69.02
2017-12-03T09:10:08.134Z,67.88
2017-12-03T09:11:08.072Z,67.50
2017-12-03T09:12:08.010Z,67.98
2017-12-03T09:13:07.942Z,67.85
2017-12-03T09:14:07.882Z,68.17
2017-12-03T09:15:07.827Z,67.98
2017-12-03T09:16:07.764Z,67.41
2017-12-03T09:17:07.711Z,66.78
2017-12-03T09:18:07.655Z,65.45
2017-12-03T09:19:07.576Z,65.51
2017-12-03T09:20:07.514Z,65.45
2017-12-03T09:21:07.452Z,66.74
2017-12-03T09:22:07.386Z,67.38
2017-12-03T09:23:07.328Z,67.13
2017-12-03T09:24:07.268Z,66.65
2017-12-03T09:25:07.208Z,67.22
2017-12-03T09:26:07.150Z,66.94
2017-12-03T09:27:07.097Z,65.99
2017-12-03T09:28:07.041Z,65.41
2017-12-03T09:29:06.963Z,65.80
2017-12-03T09:30:06.901Z,65.99
2017-12-03T09:31:06.839Z,66.08
2017-12-03T09:32:06.772Z,67.28
2017-12-03T09:33:06.715Z,67.38
2017-12-03T09:34:06.653Z,67.66
2017-12-03T09:35:06.595Z,67.76
2017-12-03T09:36:06.532Z,67.94
2017-12-03T09:37:06.471Z,68.61
2017-12-03T09:38:06.413Z,68.58
2017-12-03T09:39:06.349Z,68.29
2017-12-03T09:40:06.288Z,68.77
2017-12-03T09:41:06.219Z,68.71
2017-12-03T09:42:06.160Z,68.13
2017-12-03T09:43:06.099Z,67.94
2017-12-03T09:44:06.042Z,68.23
2017-12-03T09:45:05.979Z,68.29
2017-12-03T09:46:05.925Z,68.39
2017-12-03T09:47:05.869Z,71.14
2017-12-03T09:48:05.815Z,69.91
2017-12-03T09:49:05.733Z,70.06
2017-12-03T09:50:05.717Z,71.48
2017-12-03T09:51:05.605Z,72.72
2017-12-03T09:52:05.545Z,73.48
2017-12-03T09:53:05.485Z,73.29
2017-12-03T09:54:05.440Z,72.15
2017-12-03T09:55:05.368Z,71.77
2017-12-03T09:56:05.318Z,71.77
2017-12-03T09:57:05.241Z,71.77
2017-12-03T09:58:05.179Z,72.15
2017-12-03T09:59:05.113Z,72.63
2017-12-03T10:00:05.057Z,72.78
2017-12-03T10:01:04.987Z,74.52
2017-12-03T10:02:04.928Z,74.05
2017-12-03T10:03:04.869Z,74.24
2017-12-03T10:04:04.811Z,73.67
2017-12-03T10:05:04.753Z,73.54
2017-12-03T10:06:04.699Z,74.30
2017-12-03T10:07:04.623Z,74.87
2017-12-03T10:08:04.560Z,75.53
2017-12-03T10:09:04.497Z,76.20
2017-12-03T10:10:04.431Z,76.76
2017-12-03T10:11:04.372Z,76.48
2017-12-03T10:12:04.422Z,76.10
2017-12-03T10:13:04.269Z,75.62
2017-12-03T10:14:04.187Z,77.05
2017-12-03T10:15:04.168Z,76.76
2017-12-03T10:16:04.134Z,75.53
2017-12-03T10:17:04.017Z,75.53
2017-12-03T10:18:04.152Z,76.76
2017-12-03T10:19:03.903Z,77.33
2017-12-03T10:20:03.997Z,76.95
2017-12-03T10:21:04.369Z,77.05
2017-12-03T10:22:03.710Z,76.95
2017-12-03T10:23:12.893Z,76.86
2017-12-03T10:24:56.676Z,76.54
2017-12-03T10:25:56.550Z,76.54
2017-12-03T10:27:49.545Z,78.34
2017-12-03T10:28:49.503Z,78.53
2017-12-03T10:30:42.351Z,77.96
2017-12-03T10:31:42.183Z,78.43
2017-12-03T10:33:34.970Z,79.00
2017-12-03T10:34:34.914Z,78.81
2017-12-03T10:36:29.084Z,78.62
2017-12-03T10:37:28.918Z,78.62
2017-12-03T10:39:21.842Z,78.15
2017-12-03T10:40:21.722Z,78.24
2017-12-03T10:42:14.556Z,79.47
2017-12-03T10:43:14.446Z,79.28
2017-12-03T10:45:07.282Z,78.91
2017-12-03T10:46:07.288Z,78.91
2017-12-03T10:48:02.013Z,79.00
2017-12-03T10:49:01.979Z,78.91
2017-12-03T10:50:01.837Z,79.19
2017-12-03T10:51:01.798Z,79.10
2017-12-03T10:52:01.772Z,79.19
2017-12-03T10:53:01.644Z,79.57
2017-12-03T10:54:01.665Z,79.38
2017-12-03T10:55:01.567Z,79.85
2017-12-03T10:56:01.508Z,80.14
2017-12-03T10:57:01.408Z,79.47
2017-12-03T10:58:01.350Z,79.85
2017-12-03T10:59:01.390Z,79.85
2017-12-03T11:00:01.318Z,79.66
2017-12-03T11:01:01.194Z,79.38
2017-12-03T11:02:01.120Z,79.47
2017-12-03T11:03:01.019Z,79.00
2017-12-03T11:04:00.989Z,79.76
2017-12-03T11:05:00.929Z,79.57
2017-12-03T11:06:00.848Z,79.95
2017-12-03T11:07:00.782Z,80.14
2017-12-03T11:08:00.725Z,80.99
2017-12-03T11:09:00.714Z,81.27
2017-12-03T11:10:00.597Z,80.76
2017-12-03T11:11:00.542Z,81.09
2017-12-03T11:12:00.504Z,80.67
2017-12-03T11:13:00.593Z,81.33
2017-12-03T11:14:00.343Z,81.24
2017-12-03T11:15:01.120Z,81.24
2017-12-03T11:16:00.223Z,81.24
2017-12-03T11:17:00.167Z,81.24
2017-12-03T11:18:00.079Z,81.14
2017-12-03T11:19:00.120Z,80.67
2017-12-03T11:19:59.948Z,81.05
2017-12-03T11:20:59.942Z,81.43
2017-12-03T11:21:59.819Z,81.43
2017-12-03T11:22:59.759Z,81.14
2017-12-03T11:23:59.724Z,81.81
2017-12-03T11:24:59.734Z,81.62
2017-12-03T11:25:59.655Z,81.81
2017-12-03T11:26:59.522Z,81.99
2017-12-03T11:27:59.447Z,82.18
2017-12-03T11:28:59.387Z,82.18
2017-12-03T11:29:59.324Z,81.81
2017-12-03T11:30:59.269Z,84.27
2017-12-03T11:31:59.216Z,83.04
2017-12-03T11:32:59.129Z,81.99
2017-12-03T11:33:59.064Z,83.13
2017-12-03T11:34:59.032Z,83.70
2017-12-03T11:35:58.951Z,83.23
2017-12-03T11:36:58.877Z,83.42
2017-12-03T11:37:58.821Z,82.94
2017-12-03T11:38:58.792Z,82.85
2017-12-03T11:39:58.687Z,81.99
2017-12-03T11:40:58.637Z,81.52
2017-12-03T11:41:58.698Z,81.52
2017-12-03T11:42:58.494Z,81.62
2017-12-03T11:43:58.474Z,81.81
2017-12-03T11:44:58.395Z,81.81
2017-12-03T11:45:58.751Z,81.24
2017-12-03T11:46:58.238Z,81.33
2017-12-03T11:47:58.173Z,81.24
2017-12-03T11:48:58.118Z,81.33
2017-12-03T11:49:58.074Z,81.81
2017-12-03T11:50:57.995Z,82.47
2017-12-03T11:51:57.928Z,81.71
2017-12-03T11:52:57.937Z,81.62
2017-12-03T11:53:57.812Z,81.43
2017-12-03T11:54:57.766Z,81.33
2017-12-03T11:55:57.668Z,81.14
2017-12-03T11:56:57.649Z,81.43
2017-12-03T11:57:58.590Z,81.90
2017-12-03T11:58:57.521Z,81.62
2017-12-03T11:59:57.421Z,81.99
2017-12-03T12:00:57.368Z,81.52
2017-12-03T12:01:57.285Z,81.52
2017-12-03T12:02:57.296Z,81.90
2017-12-03T12:03:57.163Z,83.42
2017-12-03T12:04:57.261Z,82.94
2017-12-03T12:05:57.058Z,82.94
2017-12-03T12:06:56.990Z,81.71
2017-12-03T12:07:56.943Z,81.62
2017-12-03T12:08:56.879Z,81.52
2017-12-03T12:09:56.821Z,81.71
2017-12-03T12:10:56.774Z,82.18
2017-12-03T12:11:56.653Z,82.18
2017-12-03T12:12:56.655Z,81.71
2017-12-03T12:13:56.547Z,81.71
2017-12-03T12:14:56.483Z,81.71
2017-12-03T12:15:56.434Z,82.28
2017-12-03T12:16:56.345Z,81.81
2017-12-03T12:17:56.385Z,82.28
2017-12-03T12:18:56.238Z,82.18
2017-12-03T12:19:56.166Z,82.47
2017-12-03T12:20:56.117Z,83.04
2017-12-03T12:21:56.039Z,83.42
2017-12-03T12:22:56.043Z,83.80
2017-12-03T12:23:55.907Z,83.70
2017-12-03T12:24:55.860Z,84.46
2017-12-03T12:25:55.770Z,84.08
2017-12-03T12:26:55.729Z,84.65
2017-12-03T12:27:55.827Z,84.94
2017-12-03T12:28:55.660Z,84.74
2017-12-03T12:29:55.524Z,84.36
2017-12-03T12:30:55.549Z,84.94
2017-12-03T12:31:55.407Z,85.41
2017-12-03T12:32:55.405Z,84.84
2017-12-03T12:33:55.341Z,84.84
2017-12-03T12:34:55.209Z,84.55
2017-12-03T12:35:55.146Z,85.65
2017-12-03T12:36:55.115Z,85.46
2017-12-03T12:37:55.019Z,86.12
2017-12-03T12:38:54.961Z,85.93
2017-12-03T12:39:54.888Z,85.84
2017-12-03T12:40:54.921Z,85.84
2017-12-03T12:41:54.800Z,85.93
2017-12-03T12:42:54.716Z,87.83
2017-12-03T12:43:54.725Z,89.15
2017-12-03T12:44:54.584Z,89.34
2017-12-03T12:45:54.498Z,89.01
2017-12-03T12:46:54.498Z,87.35
2017-12-03T12:47:54.377Z,86.41
2017-12-03T12:48:54.312Z,86.88
2017-12-03T12:49:54.276Z,86.50
2017-12-03T12:50:54.221Z,86.60
2017-12-03T12:51:54.117Z,86.79
2017-12-03T12:52:54.062Z,87.07
2017-12-03T12:53:54.009Z,87.16
2017-12-03T12:54:53.984Z,87.16
2017-12-03T12:55:53.902Z,87.26
2017-12-03T12:56:53.815Z,86.69
2017-12-03T12:57:53.726Z,86.79
2017-12-03T12:58:53.679Z,87.64
2017-12-03T12:59:53.616Z,87.68